»·PEaware :: N9030C KSNA-KCRQ

N9030C :: KSNA-KCRQ

FLIGHT INFORMATION

Flight Status: Arrived
Operator: Privately registered:
United States
More flights under this callsign
Pilot: Craig B. (17555)
Aircraft: CESSNA 172 SKYHAWK
(C172)
More flights by this aircraft type
Origin: KSNA John Wayne-Orange Co
United States
Destination: KCRQ McClellan-Palomar
United States
More flights between these airports :: More routes between these airports
Route: +V23 OCN
File this flight plan on PilotEdge
Remarks: I-2 RATING
Altitude:
(Current/Filed)
5,000ft
Speed:
(Current/Filed)
115kts
Departed: 10-Jan-18 05:24 PM
Arrived: 10-Jan-18 06:32 PM
Distance/Time
Traveled:
44nm/1:07
Distance/Time
To Go:
Arrived

Flight Plot

Page will automatically refresh every two minutes.


Map Options




Map Legend


Flown Route
Filed Route
Departure Airport
Arrival Airport
Navaid (VOR, NDB)
Fix

Horizontal Profiles

Position Reports

Time Latitude Longitude Heading Altitude Ground
Speed
10-Jan-18 17:22 33.674416 -117.871762 128 60ft 0kts
10-Jan-18 17:23 33.674416 -117.871762 128 60ft 0kts
10-Jan-18 17:24 33.674416 -117.871762 128 60ft 0kts
10-Jan-18 17:25 33.674416 -117.871762 128 60ft 0kts
10-Jan-18 17:26 33.674416 -117.871762 128 60ft 0kts
10-Jan-18 17:27 33.674416 -117.871762 128 60ft 0kts
10-Jan-18 17:28 33.676599 -117.869739 30 60ft 30kts
10-Jan-18 17:29 33.681269 -117.866527 108 60ft 0kts
10-Jan-18 17:30 33.677364 -117.867699 205 79ft 66kts
10-Jan-18 17:31 33.655778 -117.876066 185 734ft 91kts
10-Jan-18 17:32 33.629802 -117.878451 176 1434ft 95kts
10-Jan-18 17:33 33.610872 -117.857517 128 2139ft 98kts
10-Jan-18 17:34 33.595110 -117.831604 130 2835ft 95kts
10-Jan-18 17:35 33.578932 -117.806529 131 3470ft 97kts
10-Jan-18 17:36 33.562416 -117.781062 131 4067ft 97kts
10-Jan-18 17:47 33.674444 -117.871826 117 60ft 0kts
10-Jan-18 17:48 33.674444 -117.871826 117 60ft 0kts
10-Jan-18 17:49 33.674444 -117.871826 117 60ft 0kts
10-Jan-18 17:50 33.676710 -117.869704 27 60ft 33kts
10-Jan-18 17:51 33.681243 -117.866466 118 60ft 0kts
10-Jan-18 17:52 33.681233 -117.866443 117 60ft 1kts
10-Jan-18 17:53 33.669761 -117.873288 211 325ft 85kts
10-Jan-18 17:54 33.644092 -117.877740 185 936ft 102kts
10-Jan-18 17:55 33.614918 -117.880973 185 1536ft 106kts
10-Jan-18 17:56 33.585376 -117.884267 185 2145ft 106kts
10-Jan-18 17:57 33.560804 -117.879185 122 2848ft 95kts
10-Jan-18 17:58 33.550407 -117.854659 120 3300ft 103kts
10-Jan-18 17:59 33.534947 -117.818324 120 3882ft 106kts
10-Jan-18 18:00 33.521611 -117.787019 120 4380ft 105kts
10-Jan-18 18:01 33.510641 -117.761206 120 4796ft 103kts
10-Jan-18 18:02 33.494175 -117.722916 120 4983ft 117kts
10-Jan-18 18:03 33.480959 -117.694510 129 4982ft 116kts
10-Jan-18 18:04 33.459445 -117.665663 137 4983ft 115kts
10-Jan-18 18:05 33.432262 -117.634932 139 4983ft 115kts
10-Jan-18 18:06 33.412712 -117.613032 139 4983ft 115kts
10-Jan-18 18:07 33.389117 -117.586910 139 4983ft 117kts
10-Jan-18 18:08 33.364217 -117.560770 139 4983ft 120kts
10-Jan-18 18:09 33.338818 -117.534257 139 4983ft 121kts
10-Jan-18 18:10 33.313420 -117.507464 138 4983ft 122kts
10-Jan-18 18:11 33.289029 -117.479316 135 4983ft 122kts
10-Jan-18 18:12 33.265391 -117.450121 131 4984ft 122kts
10-Jan-18 18:13 33.243120 -117.419393 125 4983ft 122kts
10-Jan-18 18:14 33.244810 -117.379582 80 5009ft 121kts
10-Jan-18 18:15 33.250351 -117.340470 80 5010ft 121kts
10-Jan-18 18:16 33.256007 -117.300668 80 5010ft 121kts
10-Jan-18 18:17 33.261662 -117.260904 80 5010ft 121kts
10-Jan-18 18:18 33.267310 -117.221215 80 5010ft 121kts
10-Jan-18 18:19 33.273034 -117.181471 80 5010ft 121kts
10-Jan-18 18:20 33.278898 -117.141593 80 5010ft 122kts
10-Jan-18 18:21 33.284788 -117.101553 80 5010ft 122kts
10-Jan-18 18:22 33.290658 -117.061675 80 5010ft 122kts
10-Jan-18 18:23 33.296551 -117.021652 80 5010ft 122kts
10-Jan-18 18:24 33.294576 -116.984725 154 5119ft 101kts
10-Jan-18 18:25 33.266761 -116.988445 190 5211ft 115kts
10-Jan-18 18:26 33.233951 -116.995855 190 5210ft 121kts
10-Jan-18 18:27 33.204165 -117.002496 190 5208ft 94kts
10-Jan-18 18:28 33.178421 -117.014916 230 4283ft 108kts
10-Jan-18 18:29 33.165476 -117.045491 260 3514ft 98kts
10-Jan-18 18:30 33.160433 -117.078696 260 3509ft 98kts
10-Jan-18 18:31 33.155092 -117.112718 260 3130ft 109kts
10-Jan-18 18:32 33.149479 -117.147979 260 2527ft 108kts
10-Jan-18 18:33 33.143851 -117.183127 260 1918ft 100kts
10-Jan-18 18:34 33.139773 -117.208386 258 1463ft 72kts
10-Jan-18 18:35 33.135974 -117.231995 258 1055ft 73kts
10-Jan-18 18:36 33.132148 -117.255808 258 637ft 73kts
10-Jan-18 18:37 33.128586 -117.277795 257 298ft 45kts
10-Jan-18 18:38 33.127540 -117.279286 76 298ft 10kts
10-Jan-18 18:39 33.127320 -117.276248 75 298ft 0kts

Navigation Log

Ident Type
1. KSNA Airport
2. OCN Navaid
3. KCRQ Airport